sensor_id;sensor_type;location;lat;lon;timestamp;temperature;humidity
4433;DHT22;2229;48.708;9.706;2023-05-19T00:00:50;13.60;75.10
4433;DHT22;2229;48.708;9.706;2023-05-19T00:03:17;13.50;75.10
4433;DHT22;2229;48.708;9.706;2023-05-19T00:05:47;13.50;75.10
4433;DHT22;2229;48.708;9.706;2023-05-19T00:08:16;13.50;75.20
4433;DHT22;2229;48.708;9.706;2023-05-19T00:10:44;13.50;75.20
4433;DHT22;2229;48.708;9.706;2023-05-19T00:13:12;13.50;75.30
4433;DHT22;2229;48.708;9.706;2023-05-19T00:15:40;13.50;75.20
4433;DHT22;2229;48.708;9.706;2023-05-19T00:18:09;13.40;75.10
4433;DHT22;2229;48.708;9.706;2023-05-19T00:20:39;13.40;75.30
4433;DHT22;2229;48.708;9.706;2023-05-19T00:23:06;13.40;75.30
4433;DHT22;2229;48.708;9.706;2023-05-19T00:25:33;13.40;75.40
4433;DHT22;2229;48.708;9.706;2023-05-19T00:28:00;13.40;75.50
4433;DHT22;2229;48.708;9.706;2023-05-19T00:30:28;13.40;75.60
4433;DHT22;2229;48.708;9.706;2023-05-19T00:32:55;13.40;75.70
4433;DHT22;2229;48.708;9.706;2023-05-19T00:35:24;13.40;75.80
4433;DHT22;2229;48.708;9.706;2023-05-19T00:37:51;13.40;75.90
4433;DHT22;2229;48.708;9.706;2023-05-19T00:40:18;13.40;76.00
4433;DHT22;2229;48.708;9.706;2023-05-19T00:42:45;13.30;75.70
4433;DHT22;2229;48.708;9.706;2023-05-19T00:45:13;13.30;75.70
4433;DHT22;2229;48.708;9.706;2023-05-19T00:47:40;13.30;76.40
4433;DHT22;2229;48.708;9.706;2023-05-19T00:50:08;13.30;75.60
4433;DHT22;2229;48.708;9.706;2023-05-19T00:52:36;13.30;75.60
4433;DHT22;2229;48.708;9.706;2023-05-19T00:55:04;13.30;75.80
4433;DHT22;2229;48.708;9.706;2023-05-19T00:57:32;13.20;75.60
4433;DHT22;2229;48.708;9.706;2023-05-19T01:00:00;13.20;75.70
4433;DHT22;2229;48.708;9.706;2023-05-19T01:02:27;13.20;75.70
4433;DHT22;2229;48.708;9.706;2023-05-19T01:04:56;13.20;75.80
4433;DHT22;2229;48.708;9.706;2023-05-19T01:07:24;13.10;75.70
4433;DHT22;2229;48.708;9.706;2023-05-19T01:09:54;13.10;75.70
4433;DHT22;2229;48.708;9.706;2023-05-19T01:12:22;13.10;75.70
4433;DHT22;2229;48.708;9.706;2023-05-19T01:14:50;13.10;75.80
4433;DHT22;2229;48.708;9.706;2023-05-19T01:17:20;13.10;75.90
4433;DHT22;2229;48.708;9.706;2023-05-19T01:19:59;13.10;75.90
4433;DHT22;2229;48.708;9.706;2023-05-19T01:26:08;13.00;76.10
4433;DHT22;2229;48.708;9.706;2023-05-19T01:28:57;13.00;76.20
4433;DHT22;2229;48.708;9.706;2023-05-19T01:31:30;13.00;76.20
4433;DHT22;2229;48.708;9.706;2023-05-19T01:33:59;13.00;76.20
4433;DHT22;2229;48.708;9.706;2023-05-19T01:36:28;12.90;76.20
4433;DHT22;2229;48.708;9.706;2023-05-19T01:38:59;12.90;76.30
4433;DHT22;2229;48.708;9.706;2023-05-19T01:41:27;12.90;76.50
4433;DHT22;2229;48.708;9.706;2023-05-19T01:43:57;12.90;76.70
4433;DHT22;2229;48.708;9.706;2023-05-19T01:46:24;12.80;76.70
4433;DHT22;2229;48.708;9.706;2023-05-19T01:48:54;12.80;76.80
4433;DHT22;2229;48.708;9.706;2023-05-19T01:51:21;12.80;77.00
4433;DHT22;2229;48.708;9.706;2023-05-19T01:53:48;12.70;77.00
4433;DHT22;2229;48.708;9.706;2023-05-19T01:56:23;12.70;77.00
4433;DHT22;2229;48.708;9.706;2023-05-19T01:58:56;12.60;77.00
4433;DHT22;2229;48.708;9.706;2023-05-19T02:01:31;12.60;77.00
4433;DHT22;2229;48.708;9.706;2023-05-19T02:04:15;12.60;77.20
4433;DHT22;2229;48.708;9.706;2023-05-19T02:06:54;12.50;77.20
4433;DHT22;2229;48.708;9.706;2023-05-19T02:09:25;12.50;77.30
4433;DHT22;2229;48.708;9.706;2023-05-19T02:12:02;12.50;77.40
4433;DHT22;2229;48.708;9.706;2023-05-19T02:14:34;12.50;77.60
4433;DHT22;2229;48.708;9.706;2023-05-19T02:17:03;12.50;77.80
4433;DHT22;2229;48.708;9.706;2023-05-19T02:19:34;12.50;77.90
4433;DHT22;2229;48.708;9.706;2023-05-19T02:22:01;12.50;78.10
4433;DHT22;2229;48.708;9.706;2023-05-19T02:24:29;12.50;78.20
4433;DHT22;2229;48.708;9.706;2023-05-19T02:26:58;12.50;78.20
4433;DHT22;2229;48.708;9.706;2023-05-19T02:29:26;12.50;78.40
4433;DHT22;2229;48.708;9.706;2023-05-19T02:31:53;12.50;78.40
4433;DHT22;2229;48.708;9.706;2023-05-19T02:34:21;12.50;78.50
4433;DHT22;2229;48.708;9.706;2023-05-19T02:36:49;12.50;78.60
4433;DHT22;2229;48.708;9.706;2023-05-19T02:39:17;12.50;78.70
4433;DHT22;2229;48.708;9.706;2023-05-19T02:41:44;12.50;78.70
4433;DHT22;2229;48.708;9.706;2023-05-19T02:44:11;12.50;78.70
4433;DHT22;2229;48.708;9.706;2023-05-19T02:46:38;12.50;78.70
4433;DHT22;2229;48.708;9.706;2023-05-19T02:49:06;12.50;78.80
4433;DHT22;2229;48.708;9.706;2023-05-19T02:51:34;12.50;78.70
4433;DHT22;2229;48.708;9.706;2023-05-19T02:54:02;12.50;78.80
4433;DHT22;2229;48.708;9.706;2023-05-19T02:56:30;12.50;78.70
4433;DHT22;2229;48.708;9.706;2023-05-19T02:58:57;12.40;78.70
4433;DHT22;2229;48.708;9.706;2023-05-19T03:01:24;12.40;78.80
4433;DHT22;2229;48.708;9.706;2023-05-19T03:03:51;12.40;78.70
4433;DHT22;2229;48.708;9.706;2023-05-19T03:06:19;12.40;78.70
4433;DHT22;2229;48.708;9.706;2023-05-19T03:08:48;12.40;78.70
4433;DHT22;2229;48.708;9.706;2023-05-19T03:11:17;12.40;78.70
4433;DHT22;2229;48.708;9.706;2023-05-19T03:13:44;12.40;78.80
4433;DHT22;2229;48.708;9.706;2023-05-19T03:16:11;12.40;78.80
4433;DHT22;2229;48.708;9.706;2023-05-19T03:18:39;12.40;78.90
4433;DHT22;2229;48.708;9.706;2023-05-19T03:21:07;12.40;78.80
4433;DHT22;2229;48.708;9.706;2023-05-19T03:23:34;12.40;78.70
4433;DHT22;2229;48.708;9.706;2023-05-19T03:26:01;12.40;78.60
4433;DHT22;2229;48.708;9.706;2023-05-19T03:28:30;12.40;78.50
4433;DHT22;2229;48.708;9.706;2023-05-19T03:30:58;12.40;78.50
4433;DHT22;2229;48.708;9.706;2023-05-19T03:33:29;12.40;78.50
4433;DHT22;2229;48.708;9.706;2023-05-19T03:35:56;12.40;78.50
4433;DHT22;2229;48.708;9.706;2023-05-19T03:38:25;12.40;78.50
4433;DHT22;2229;48.708;9.706;2023-05-19T03:40:56;12.40;78.90
4433;DHT22;2229;48.708;9.706;2023-05-19T03:43:24;12.40;78.60
4433;DHT22;2229;48.708;9.706;2023-05-19T03:46:03;12.40;78.50
4433;DHT22;2229;48.708;9.706;2023-05-19T03:48:49;12.40;78.60
4433;DHT22;2229;48.708;9.706;2023-05-19T03:51:16;12.40;78.70
4433;DHT22;2229;48.708;9.706;2023-05-19T03:53:45;12.40;78.80
4433;DHT22;2229;48.708;9.706;2023-05-19T03:56:13;12.40;78.90
4433;DHT22;2229;48.708;9.706;2023-05-19T03:58:42;12.40;78.90
4433;DHT22;2229;48.708;9.706;2023-05-19T04:01:13;12.40;79.00
4433;DHT22;2229;48.708;9.706;2023-05-19T04:03:40;12.40;79.10
4433;DHT22;2229;48.708;9.706;2023-05-19T04:06:07;12.40;79.20
4433;DHT22;2229;48.708;9.706;2023-05-19T04:08:38;12.40;79.20
4433;DHT22;2229;48.708;9.706;2023-05-19T04:11:05;12.40;79.30
4433;DHT22;2229;48.708;9.706;2023-05-19T04:13:33;12.40;79.30
4433;DHT22;2229;48.708;9.706;2023-05-19T04:16:00;12.40;79.30
4433;DHT22;2229;48.708;9.706;2023-05-19T04:18:29;12.40;79.40
4433;DHT22;2229;48.708;9.706;2023-05-19T04:20:56;12.40;79.50
4433;DHT22;2229;48.708;9.706;2023-05-19T04:23:24;12.40;79.70
4433;DHT22;2229;48.708;9.706;2023-05-19T04:25:51;12.40;79.90
4433;DHT22;2229;48.708;9.706;2023-05-19T04:28:19;12.40;80.00
4433;DHT22;2229;48.708;9.706;2023-05-19T04:30:46;12.40;79.90
4433;DHT22;2229;48.708;9.706;2023-05-19T04:33:13;12.50;80.00
4433;DHT22;2229;48.708;9.706;2023-05-19T04:35:43;12.40;79.90
4433;DHT22;2229;48.708;9.706;2023-05-19T04:38:12;12.40;79.90
4433;DHT22;2229;48.708;9.706;2023-05-19T04:40:43;12.50;80.00
4433;DHT22;2229;48.708;9.706;2023-05-19T04:43:11;12.40;79.80
4433;DHT22;2229;48.708;9.706;2023-05-19T04:45:39;12.50;80.10
4433;DHT22;2229;48.708;9.706;2023-05-19T04:48:09;12.50;80.30
4433;DHT22;2229;48.708;9.706;2023-05-19T04:50:37;12.50;80.30
4433;DHT22;2229;48.708;9.706;2023-05-19T04:53:08;12.50;80.30
4433;DHT22;2229;48.708;9.706;2023-05-19T04:55:37;12.60;80.40
4433;DHT22;2229;48.708;9.706;2023-05-19T04:58:05;12.60;80.50
4433;DHT22;2229;48.708;9.706;2023-05-19T05:00:32;12.60;80.70
4433;DHT22;2229;48.708;9.706;2023-05-19T05:03:04;12.70;80.70
4433;DHT22;2229;48.708;9.706;2023-05-19T05:05:32;12.80;80.70
4433;DHT22;2229;48.708;9.706;2023-05-19T05:07:59;12.90;80.80
4433;DHT22;2229;48.708;9.706;2023-05-19T05:10:33;12.90;80.90
4433;DHT22;2229;48.708;9.706;2023-05-19T05:13:01;13.00;81.10
4433;DHT22;2229;48.708;9.706;2023-05-19T05:15:29;13.10;81.20
4433;DHT22;2229;48.708;9.706;2023-05-19T05:18:00;13.10;81.30
4433;DHT22;2229;48.708;9.706;2023-05-19T05:20:27;13.10;81.20
4433;DHT22;2229;48.708;9.706;2023-05-19T05:22:56;13.20;81.60
4433;DHT22;2229;48.708;9.706;2023-05-19T05:25:25;13.30;81.70
4433;DHT22;2229;48.708;9.706;2023-05-19T05:27:54;13.30;81.60
4433;DHT22;2229;48.708;9.706;2023-05-19T05:30:24;13.30;81.50
4433;DHT22;2229;48.708;9.706;2023-05-19T05:32:52;13.30;81.70
4433;DHT22;2229;48.708;9.706;2023-05-19T05:35:38;13.30;81.70
4433;DHT22;2229;48.708;9.706;2023-05-19T05:38:09;13.30;81.70
4433;DHT22;2229;48.708;9.706;2023-05-19T05:40:37;13.30;81.90
4433;DHT22;2229;48.708;9.706;2023-05-19T05:43:07;13.40;82.10
4433;DHT22;2229;48.708;9.706;2023-05-19T05:45:40;13.40;82.20
4433;DHT22;2229;48.708;9.706;2023-05-19T05:48:08;13.40;82.30
4433;DHT22;2229;48.708;9.706;2023-05-19T05:50:36;13.40;82.10
4433;DHT22;2229;48.708;9.706;2023-05-19T05:53:05;13.40;81.90
4433;DHT22;2229;48.708;9.706;2023-05-19T05:55:34;13.40;81.90
4433;DHT22;2229;48.708;9.706;2023-05-19T05:58:01;13.40;82.10
4433;DHT22;2229;48.708;9.706;2023-05-19T06:00:30;13.40;82.10
4433;DHT22;2229;48.708;9.706;2023-05-19T06:02:58;13.50;82.20
4433;DHT22;2229;48.708;9.706;2023-05-19T06:05:25;13.50;82.20
4433;DHT22;2229;48.708;9.706;2023-05-19T06:07:53;13.50;82.10
4433;DHT22;2229;48.708;9.706;2023-05-19T06:10:24;13.60;82.20
4433;DHT22;2229;48.708;9.706;2023-05-19T06:12:53;13.70;82.20
4433;DHT22;2229;48.708;9.706;2023-05-19T06:15:22;13.80;82.10
4433;DHT22;2229;48.708;9.706;2023-05-19T06:17:56;13.80;81.90
4433;DHT22;2229;48.708;9.706;2023-05-19T06:20:23;13.80;81.70
4433;DHT22;2229;48.708;9.706;2023-05-19T06:22:51;13.80;81.50
4433;DHT22;2229;48.708;9.706;2023-05-19T06:25:20;13.90;81.40
4433;DHT22;2229;48.708;9.706;2023-05-19T06:27:47;13.90;81.40
4433;DHT22;2229;48.708;9.706;2023-05-19T06:30:15;13.90;81.30
4433;DHT22;2229;48.708;9.706;2023-05-19T06:32:52;13.90;81.10
4433;DHT22;2229;48.708;9.706;2023-05-19T06:35:22;14.00;80.90
4433;DHT22;2229;48.708;9.706;2023-05-19T06:37:49;14.00;80.70
4433;DHT22;2229;48.708;9.706;2023-05-19T06:40:18;14.10;80.60
4433;DHT22;2229;48.708;9.706;2023-05-19T06:42:45;14.20;80.80
4433;DHT22;2229;48.708;9.706;2023-05-19T06:45:22;14.30;80.80
4433;DHT22;2229;48.708;9.706;2023-05-19T06:47:50;14.40;80.60
4433;DHT22;2229;48.708;9.706;2023-05-19T06:50:19;14.50;80.30
4433;DHT22;2229;48.708;9.706;2023-05-19T06:52:50;14.70;80.10
4433;DHT22;2229;48.708;9.706;2023-05-19T06:55:17;14.70;80.00
4433;DHT22;2229;48.708;9.706;2023-05-19T06:57:45;14.90;80.10
4433;DHT22;2229;48.708;9.706;2023-05-19T07:00:13;15.00;79.60
4433;DHT22;2229;48.708;9.706;2023-05-19T07:02:44;15.10;79.40
4433;DHT22;2229;48.708;9.706;2023-05-19T07:05:13;15.20;79.20
4433;DHT22;2229;48.708;9.706;2023-05-19T07:07:43;15.30;78.90
4433;DHT22;2229;48.708;9.706;2023-05-19T07:10:15;15.30;78.50
4433;DHT22;2229;48.708;9.706;2023-05-19T07:12:43;15.30;78.40
4433;DHT22;2229;48.708;9.706;2023-05-19T07:15:11;15.20;78.00
4433;DHT22;2229;48.708;9.706;2023-05-19T07:17:38;15.10;77.90
4433;DHT22;2229;48.708;9.706;2023-05-19T07:20:07;15.00;78.20
4433;DHT22;2229;48.708;9.706;2023-05-19T07:22:35;14.90;78.10
4433;DHT22;2229;48.708;9.706;2023-05-19T07:25:05;14.80;78.20
4433;DHT22;2229;48.708;9.706;2023-05-19T07:27:34;14.80;78.30
4433;DHT22;2229;48.708;9.706;2023-05-19T07:30:02;14.80;78.40
4433;DHT22;2229;48.708;9.706;2023-05-19T07:32:30;14.80;78.60
4433;DHT22;2229;48.708;9.706;2023-05-19T07:34:57;14.80;78.80
4433;DHT22;2229;48.708;9.706;2023-05-19T07:37:24;14.80;78.70
4433;DHT22;2229;48.708;9.706;2023-05-19T07:39:52;14.80;78.80
4433;DHT22;2229;48.708;9.706;2023-05-19T07:42:19;14.80;78.70
4433;DHT22;2229;48.708;9.706;2023-05-19T07:44:47;14.80;78.50
4433;DHT22;2229;48.708;9.706;2023-05-19T07:47:15;14.90;78.50
4433;DHT22;2229;48.708;9.706;2023-05-19T07:49:42;14.80;78.20
4433;DHT22;2229;48.708;9.706;2023-05-19T07:52:09;14.80;78.00
4433;DHT22;2229;48.708;9.706;2023-05-19T07:54:36;14.90;78.10
4433;DHT22;2229;48.708;9.706;2023-05-19T07:57:05;14.90;78.40
4433;DHT22;2229;48.708;9.706;2023-05-19T07:59:32;14.90;78.40
4433;DHT22;2229;48.708;9.706;2023-05-19T08:02:01;15.00;78.50
4433;DHT22;2229;48.708;9.706;2023-05-19T08:04:28;15.00;78.20
4433;DHT22;2229;48.708;9.706;2023-05-19T08:06:56;15.00;78.10
4433;DHT22;2229;48.708;9.706;2023-05-19T08:09:24;15.00;78.00
4433;DHT22;2229;48.708;9.706;2023-05-19T08:11:52;15.10;78.20
4433;DHT22;2229;48.708;9.706;2023-05-19T08:14:19;15.20;78.30
4433;DHT22;2229;48.708;9.706;2023-05-19T08:16:47;15.30;78.50
4433;DHT22;2229;48.708;9.706;2023-05-19T08:19:16;15.30;78.60
4433;DHT22;2229;48.708;9.706;2023-05-19T08:21:43;15.40;78.40
4433;DHT22;2229;48.708;9.706;2023-05-19T08:24:11;15.50;78.20
4433;DHT22;2229;48.708;9.706;2023-05-19T08:26:38;15.60;78.20
4433;DHT22;2229;48.708;9.706;2023-05-19T08:29:05;15.70;78.00
4433;DHT22;2229;48.708;9.706;2023-05-19T08:31:32;15.80;77.90
4433;DHT22;2229;48.708;9.706;2023-05-19T08:34:00;15.90;77.80
4433;DHT22;2229;48.708;9.706;2023-05-19T08:36:30;15.90;77.00
4433;DHT22;2229;48.708;9.706;2023-05-19T08:38:58;15.90;76.30
4433;DHT22;2229;48.708;9.706;2023-05-19T08:41:26;15.90;76.20
4433;DHT22;2229;48.708;9.706;2023-05-19T08:43:53;15.90;76.30
4433;DHT22;2229;48.708;9.706;2023-05-19T08:46:23;15.90;76.40
4433;DHT22;2229;48.708;9.706;2023-05-19T08:48:53;15.90;76.50
4433;DHT22;2229;48.708;9.706;2023-05-19T08:51:29;15.90;76.70
4433;DHT22;2229;48.708;9.706;2023-05-19T08:54:13;15.90;76.30
4433;DHT22;2229;48.708;9.706;2023-05-19T08:56:42;15.80;76.20
4433;DHT22;2229;48.708;9.706;2023-05-19T08:59:10;15.80;76.20
4433;DHT22;2229;48.708;9.706;2023-05-19T09:01:38;15.80;76.40
4433;DHT22;2229;48.708;9.706;2023-05-19T09:04:06;15.90;76.50
4433;DHT22;2229;48.708;9.706;2023-05-19T09:06:33;15.90;76.70
4433;DHT22;2229;48.708;9.706;2023-05-19T09:09:02;16.00;76.80
4433;DHT22;2229;48.708;9.706;2023-05-19T09:11:30;16.10;77.10
4433;DHT22;2229;48.708;9.706;2023-05-19T09:13:57;16.10;77.00
4433;DHT22;2229;48.708;9.706;2023-05-19T09:16:24;16.20;76.90
4433;DHT22;2229;48.708;9.706;2023-05-19T09:18:55;16.20;76.70
4433;DHT22;2229;48.708;9.706;2023-05-19T09:21:27;16.20;76.10
4433;DHT22;2229;48.708;9.706;2023-05-19T09:23:56;16.10;75.60
4433;DHT22;2229;48.708;9.706;2023-05-19T09:26:35;16.00;75.60
4433;DHT22;2229;48.708;9.706;2023-05-19T09:29:09;16.00;75.90
4433;DHT22;2229;48.708;9.706;2023-05-19T09:31:37;16.00;75.50
4433;DHT22;2229;48.708;9.706;2023-05-19T09:34:11;15.90;75.60
4433;DHT22;2229;48.708;9.706;2023-05-19T09:36:40;15.90;76.00
4433;DHT22;2229;48.708;9.706;2023-05-19T09:39:13;15.90;75.80
4433;DHT22;2229;48.708;9.706;2023-05-19T09:41:42;15.90;75.80
4433;DHT22;2229;48.708;9.706;2023-05-19T09:44:20;15.80;75.90
4433;DHT22;2229;48.708;9.706;2023-05-19T09:46:48;15.80;76.10
4433;DHT22;2229;48.708;9.706;2023-05-19T09:49:19;15.80;76.20
4433;DHT22;2229;48.708;9.706;2023-05-19T09:51:49;15.80;76.00
4433;DHT22;2229;48.708;9.706;2023-05-19T09:54:19;15.80;76.00
4433;DHT22;2229;48.708;9.706;2023-05-19T09:56:56;15.80;76.10
4433;DHT22;2229;48.708;9.706;2023-05-19T09:59:24;15.90;76.40
4433;DHT22;2229;48.708;9.706;2023-05-19T10:01:53;15.90;76.10
4433;DHT22;2229;48.708;9.706;2023-05-19T10:04:22;15.80;75.90
4433;DHT22;2229;48.708;9.706;2023-05-19T10:06:50;15.80;75.90
4433;DHT22;2229;48.708;9.706;2023-05-19T10:09:22;15.80;75.90
4433;DHT22;2229;48.708;9.706;2023-05-19T10:11:52;15.80;75.90
4433;DHT22;2229;48.708;9.706;2023-05-19T10:14:22;15.90;76.00
4433;DHT22;2229;48.708;9.706;2023-05-19T10:16:51;15.90;75.80
4433;DHT22;2229;48.708;9.706;2023-05-19T10:19:22;15.90;75.10
4433;DHT22;2229;48.708;9.706;2023-05-19T10:21:50;15.90;74.40
4433;DHT22;2229;48.708;9.706;2023-05-19T10:24:18;15.90;74.30
4433;DHT22;2229;48.708;9.706;2023-05-19T10:26:49;15.90;74.50
4433;DHT22;2229;48.708;9.706;2023-05-19T10:29:22;15.90;74.20
4433;DHT22;2229;48.708;9.706;2023-05-19T10:31:50;15.90;74.60
4433;DHT22;2229;48.708;9.706;2023-05-19T10:34:31;15.90;74.30
4433;DHT22;2229;48.708;9.706;2023-05-19T10:37:12;15.80;74.10
4433;DHT22;2229;48.708;9.706;2023-05-19T10:39:43;15.60;74.20
4433;DHT22;2229;48.708;9.706;2023-05-19T10:42:15;15.60;74.80
4433;DHT22;2229;48.708;9.706;2023-05-19T10:45:00;15.50;75.30
4433;DHT22;2229;48.708;9.706;2023-05-19T10:47:29;15.40;75.70
4433;DHT22;2229;48.708;9.706;2023-05-19T10:49:59;15.30;75.70
4433;DHT22;2229;48.708;9.706;2023-05-19T10:52:26;15.30;76.50
4433;DHT22;2229;48.708;9.706;2023-05-19T10:54:57;15.30;75.90
4433;DHT22;2229;48.708;9.706;2023-05-19T10:57:27;15.30;75.90
4433;DHT22;2229;48.708;9.706;2023-05-19T10:59:59;15.40;76.30
4433;DHT22;2229;48.708;9.706;2023-05-19T11:02:39;15.40;76.20
4433;DHT22;2229;48.708;9.706;2023-05-19T11:05:08;15.50;76.30
4433;DHT22;2229;48.708;9.706;2023-05-19T11:07:35;15.60;76.10
4433;DHT22;2229;48.708;9.706;2023-05-19T11:10:06;15.60;76.10
4433;DHT22;2229;48.708;9.706;2023-05-19T11:12:41;15.70;76.30
4433;DHT22;2229;48.708;9.706;2023-05-19T11:15:13;15.80;76.10
4433;DHT22;2229;48.708;9.706;2023-05-19T11:17:41;15.80;74.90
4433;DHT22;2229;48.708;9.706;2023-05-19T11:20:20;15.80;74.80
4433;DHT22;2229;48.708;9.706;2023-05-19T11:23:04;15.80;74.90
4433;DHT22;2229;48.708;9.706;2023-05-19T11:25:45;15.80;74.20
4433;DHT22;2229;48.708;9.706;2023-05-19T11:28:15;15.80;74.50
4433;DHT22;2229;48.708;9.706;2023-05-19T11:30:44;15.80;74.40
4433;DHT22;2229;48.708;9.706;2023-05-19T11:33:14;15.70;73.30
4433;DHT22;2229;48.708;9.706;2023-05-19T11:35:45;15.70;73.50
4433;DHT22;2229;48.708;9.706;2023-05-19T11:38:14;15.70;73.90
4433;DHT22;2229;48.708;9.706;2023-05-19T11:40:43;15.70;73.90
4433;DHT22;2229;48.708;9.706;2023-05-19T11:43:10;15.70;74.10
4433;DHT22;2229;48.708;9.706;2023-05-19T11:45:38;15.80;74.30
4433;DHT22;2229;48.708;9.706;2023-05-19T11:48:10;15.80;74.10
4433;DHT22;2229;48.708;9.706;2023-05-19T11:50:48;15.80;74.00
4433;DHT22;2229;48.708;9.706;2023-05-19T11:53:16;15.80;73.90
4433;DHT22;2229;48.708;9.706;2023-05-19T11:55:45;15.80;73.70
4433;DHT22;2229;48.708;9.706;2023-05-19T11:58:12;15.70;73.60
4433;DHT22;2229;48.708;9.706;2023-05-19T12:00:43;15.70;74.10
4433;DHT22;2229;48.708;9.706;2023-05-19T12:03:14;15.70;74.80
4433;DHT22;2229;48.708;9.706;2023-05-19T12:05:44;15.70;75.30
4433;DHT22;2229;48.708;9.706;2023-05-19T12:08:12;15.70;75.50
4433;DHT22;2229;48.708;9.706;2023-05-19T12:10:47;15.80;75.90
4433;DHT22;2229;48.708;9.706;2023-05-19T12:13:14;15.80;75.90
4433;DHT22;2229;48.708;9.706;2023-05-19T12:15:41;15.90;75.90
4433;DHT22;2229;48.708;9.706;2023-05-19T12:18:09;15.90;76.00
4433;DHT22;2229;48.708;9.706;2023-05-19T12:20:38;15.90;75.70
4433;DHT22;2229;48.708;9.706;2023-05-19T12:23:05;15.90;75.60
4433;DHT22;2229;48.708;9.706;2023-05-19T12:25:33;16.00;75.70
4433;DHT22;2229;48.708;9.706;2023-05-19T12:28:00;16.00;75.40
4433;DHT22;2229;48.708;9.706;2023-05-19T12:30:30;16.00;75.00
4433;DHT22;2229;48.708;9.706;2023-05-19T12:32:57;15.90;74.80
4433;DHT22;2229;48.708;9.706;2023-05-19T12:35:26;15.90;74.80
4433;DHT22;2229;48.708;9.706;2023-05-19T12:37:55;15.90;75.20
4433;DHT22;2229;48.708;9.706;2023-05-19T12:40:22;16.00;75.40
4433;DHT22;2229;48.708;9.706;2023-05-19T12:42:51;16.00;75.60
4433;DHT22;2229;48.708;9.706;2023-05-19T12:45:23;16.10;75.70
4433;DHT22;2229;48.708;9.706;2023-05-19T12:47:52;16.20;75.90
4433;DHT22;2229;48.708;9.706;2023-05-19T12:50:20;16.20;75.90
4433;DHT22;2229;48.708;9.706;2023-05-19T12:52:48;16.30;75.30
4433;DHT22;2229;48.708;9.706;2023-05-19T12:55:18;16.30;75.30
4433;DHT22;2229;48.708;9.706;2023-05-19T12:57:48;16.30;75.00
4433;DHT22;2229;48.708;9.706;2023-05-19T13:00:17;16.30;75.00
4433;DHT22;2229;48.708;9.706;2023-05-19T13:02:57;16.30;75.00
4433;DHT22;2229;48.708;9.706;2023-05-19T13:05:25;16.30;75.20
4433;DHT22;2229;48.708;9.706;2023-05-19T13:07:53;16.30;75.30
4433;DHT22;2229;48.708;9.706;2023-05-19T13:10:23;16.30;75.40
4433;DHT22;2229;48.708;9.706;2023-05-19T13:12:52;16.40;75.50
4433;DHT22;2229;48.708;9.706;2023-05-19T13:15:21;16.50;75.20
4433;DHT22;2229;48.708;9.706;2023-05-19T13:17:50;16.50;74.30
4433;DHT22;2229;48.708;9.706;2023-05-19T13:20:18;16.50;74.10
4433;DHT22;2229;48.708;9.706;2023-05-19T13:22:46;16.40;74.30
4433;DHT22;2229;48.708;9.706;2023-05-19T13:25:13;16.40;74.30
4433;DHT22;2229;48.708;9.706;2023-05-19T13:27:43;16.30;74.20
4433;DHT22;2229;48.708;9.706;2023-05-19T13:30:11;16.20;74.10
4433;DHT22;2229;48.708;9.706;2023-05-19T13:32:38;16.20;74.50
4433;DHT22;2229;48.708;9.706;2023-05-19T13:35:06;16.20;75.00
4433;DHT22;2229;48.708;9.706;2023-05-19T13:37:33;16.20;75.40
4433;DHT22;2229;48.708;9.706;2023-05-19T13:40:01;16.20;75.40
4433;DHT22;2229;48.708;9.706;2023-05-19T13:42:28;16.30;75.50
4433;DHT22;2229;48.708;9.706;2023-05-19T13:44:56;16.40;75.70
4433;DHT22;2229;48.708;9.706;2023-05-19T13:47:24;16.40;75.80
4433;DHT22;2229;48.708;9.706;2023-05-19T13:49:51;16.50;75.50
4433;DHT22;2229;48.708;9.706;2023-05-19T13:52:19;16.50;75.30
4433;DHT22;2229;48.708;9.706;2023-05-19T13:54:47;16.40;75.00
4433;DHT22;2229;48.708;9.706;2023-05-19T13:57:14;16.40;75.00
4433;DHT22;2229;48.708;9.706;2023-05-19T13:59:42;16.30;75.60
4433;DHT22;2229;48.708;9.706;2023-05-19T14:02:11;16.30;75.20
4433;DHT22;2229;48.708;9.706;2023-05-19T14:04:38;16.30;75.30
4433;DHT22;2229;48.708;9.706;2023-05-19T14:07:06;16.20;75.40
4433;DHT22;2229;48.708;9.706;2023-05-19T14:09:34;16.20;75.60
4433;DHT22;2229;48.708;9.706;2023-05-19T14:12:01;16.30;75.80
4433;DHT22;2229;48.708;9.706;2023-05-19T14:14:29;16.30;75.80
4433;DHT22;2229;48.708;9.706;2023-05-19T14:16:56;16.30;75.80
4433;DHT22;2229;48.708;9.706;2023-05-19T14:19:25;16.40;76.00
4433;DHT22;2229;48.708;9.706;2023-05-19T14:21:55;16.40;75.90
4433;DHT22;2229;48.708;9.706;2023-05-19T14:24:22;16.50;75.70
4433;DHT22;2229;48.708;9.706;2023-05-19T14:26:50;16.60;75.60
4433;DHT22;2229;48.708;9.706;2023-05-19T14:29:18;16.60;75.50
4433;DHT22;2229;48.708;9.706;2023-05-19T14:31:45;16.60;75.50
4433;DHT22;2229;48.708;9.706;2023-05-19T14:34:12;16.60;75.50
4433;DHT22;2229;48.708;9.706;2023-05-19T14:36:44;16.70;75.30
4433;DHT22;2229;48.708;9.706;2023-05-19T14:39:11;16.70;75.10
4433;DHT22;2229;48.708;9.706;2023-05-19T14:41:39;16.70;74.70
4433;DHT22;2229;48.708;9.706;2023-05-19T14:44:06;16.80;75.20
4433;DHT22;2229;48.708;9.706;2023-05-19T14:46:34;16.80;75.20
4433;DHT22;2229;48.708;9.706;2023-05-19T14:49:04;16.90;74.90
4433;DHT22;2229;48.708;9.706;2023-05-19T14:51:31;16.90;74.80
4433;DHT22;2229;48.708;9.706;2023-05-19T14:54:00;16.90;74.40
4433;DHT22;2229;48.708;9.706;2023-05-19T14:56:28;16.80;74.30
4433;DHT22;2229;48.708;9.706;2023-05-19T14:58:55;16.70;74.10
4433;DHT22;2229;48.708;9.706;2023-05-19T15:01:23;16.70;74.30
4433;DHT22;2229;48.708;9.706;2023-05-19T15:03:50;16.70;74.50
4433;DHT22;2229;48.708;9.706;2023-05-19T15:06:17;16.60;74.50
4433;DHT22;2229;48.708;9.706;2023-05-19T15:08:44;16.60;74.70
4433;DHT22;2229;48.708;9.706;2023-05-19T15:11:13;16.60;74.90
4433;DHT22;2229;48.708;9.706;2023-05-19T15:13:41;16.60;75.00
4433;DHT22;2229;48.708;9.706;2023-05-19T15:16:08;16.70;75.10
4433;DHT22;2229;48.708;9.706;2023-05-19T15:18:35;16.80;75.00
4433;DHT22;2229;48.708;9.706;2023-05-19T15:21:03;16.80;74.90
4433;DHT22;2229;48.708;9.706;2023-05-19T15:23:30;16.80;74.50
4433;DHT22;2229;48.708;9.706;2023-05-19T15:25:58;16.90;74.30
4433;DHT22;2229;48.708;9.706;2023-05-19T15:28:26;16.90;74.20
4433;DHT22;2229;48.708;9.706;2023-05-19T15:30:53;17.00;74.60
4433;DHT22;2229;48.708;9.706;2023-05-19T15:33:21;17.10;74.70
4433;DHT22;2229;48.708;9.706;2023-05-19T15:35:48;17.10;74.60
4433;DHT22;2229;48.708;9.706;2023-05-19T15:38:17;17.10;74.60
4433;DHT22;2229;48.708;9.706;2023-05-19T15:40:45;17.10;74.40
4433;DHT22;2229;48.708;9.706;2023-05-19T15:43:12;17.10;74.50
4433;DHT22;2229;48.708;9.706;2023-05-19T15:45:41;17.20;74.70
4433;DHT22;2229;48.708;9.706;2023-05-19T15:48:08;17.20;74.80
4433;DHT22;2229;48.708;9.706;2023-05-19T15:50:36;17.30;74.80
4433;DHT22;2229;48.708;9.706;2023-05-19T15:53:03;17.30;74.60
4433;DHT22;2229;48.708;9.706;2023-05-19T15:55:32;17.30;74.10
4433;DHT22;2229;48.708;9.706;2023-05-19T15:57:59;17.40;74.00
4433;DHT22;2229;48.708;9.706;2023-05-19T16:00:26;17.40;74.00
4433;DHT22;2229;48.708;9.706;2023-05-19T16:02:55;17.50;74.30
4433;DHT22;2229;48.708;9.706;2023-05-19T16:05:22;17.50;74.10
4433;DHT22;2229;48.708;9.706;2023-05-19T16:07:49;17.60;74.00
4433;DHT22;2229;48.708;9.706;2023-05-19T16:10:16;17.70;74.10
4433;DHT22;2229;48.708;9.706;2023-05-19T16:12:43;17.80;74.10
4433;DHT22;2229;48.708;9.706;2023-05-19T16:15:10;17.90;74.10
4433;DHT22;2229;48.708;9.706;2023-05-19T16:17:38;18.00;74.00